Terminal Aerodrome Forecast
Issued by NWS

Home | Current Version | Previous Version | Text Only | Print | Product List | Glossary On
Versions: 1 2 3 4 5 6 7 8 9 10 11 12 13
000
FTUS45 KREV 010533
TAFMMH
TAF
KMMH 010533Z 0106/0206 VRB03KT P6SM FEW100 SCT180
     FM011800 10008KT P6SM SCT080 SCT120
     FM012100 20011G18KT P6SM VCTS SCT060CB BKN120
     FM020100 30010G18KT P6SM SCT070 BKN120
     FM020400 32008KT P6SM SCT120 BKN180=

USA.gov is the U.S. government's official web portal to all federal, state and local government web resources and services.